createdAt,value
2023-03-31T00:02:13.802Z,5.35
2023-03-31T00:04:46.506Z,6.22
2023-03-31T00:07:14.990Z,5.65
2023-03-31T00:09:46.275Z,6.00
2023-03-31T00:12:14.979Z,7.07
2023-03-31T00:14:42.911Z,6.43
2023-03-31T00:17:10.693Z,5.85
2023-03-31T00:19:37.962Z,6.45
2023-03-31T00:22:05.538Z,5.78
2023-03-31T00:24:33.215Z,5.88
2023-03-31T00:27:01.762Z,5.10
2023-03-31T00:29:29.059Z,5.68
2023-03-31T00:31:56.100Z,6.38
2023-03-31T00:34:22.798Z,5.40
2023-03-31T00:36:49.565Z,5.75
2023-03-31T00:39:18.760Z,5.22
2023-03-31T00:41:45.751Z,6.15
2023-03-31T00:44:27.826Z,5.75
2023-03-31T00:47:10.436Z,5.40
2023-03-31T00:49:45.406Z,5.13
2023-03-31T00:52:48.811Z,5.43
2023-03-31T00:55:18.898Z,5.57
2023-03-31T00:57:48.047Z,6.70
2023-03-31T01:00:16.358Z,5.28
2023-03-31T01:02:51.572Z,5.00
2023-03-31T01:05:22.336Z,5.65
2023-03-31T01:07:51.896Z,6.10
2023-03-31T01:10:19.220Z,4.78
2023-03-31T01:12:54.894Z,5.70
2023-03-31T01:15:22.477Z,5.10
2023-03-31T01:17:51.125Z,4.78
2023-03-31T01:20:38.548Z,6.22
2023-03-31T01:23:17.089Z,4.70
2023-03-31T01:25:50.443Z,5.60
2023-03-31T01:28:39.035Z,5.25
2023-03-31T01:31:15.140Z,4.20
2023-03-31T01:34:12.624Z,4.45
2023-03-31T01:36:48.454Z,5.40
2023-03-31T01:39:42.994Z,5.00
2023-03-31T01:42:12.596Z,5.63
2023-03-31T01:45:16.831Z,5.55
2023-03-31T01:47:52.131Z,3.92
2023-03-31T01:50:48.531Z,5.35
2023-03-31T01:53:24.964Z,4.50
2023-03-31T01:55:57.635Z,5.13
2023-03-31T01:58:36.254Z,5.55
2023-03-31T02:01:10.414Z,4.70
2023-03-31T02:03:53.700Z,4.90
2023-03-31T02:06:25.416Z,4.93
2023-03-31T02:08:57.360Z,4.28
2023-03-31T02:11:25.649Z,4.55
2023-03-31T02:13:56.367Z,5.07
2023-03-31T02:16:26.775Z,4.88
2023-03-31T02:19:02.670Z,4.55
2023-03-31T02:21:32.983Z,4.35
2023-03-31T02:24:04.222Z,5.28
2023-03-31T02:26:36.392Z,4.50
2023-03-31T02:29:03.469Z,3.92
2023-03-31T02:32:20.626Z,4.80
2023-03-31T02:34:47.385Z,5.35
2023-03-31T02:37:14.906Z,5.07
2023-03-31T02:39:44.820Z,5.15
2023-03-31T02:42:11.890Z,4.50
2023-03-31T02:44:40.143Z,4.35
2023-03-31T02:47:11.509Z,4.32
2023-03-31T02:49:46.098Z,4.68
2023-03-31T02:52:34.747Z,3.85
2023-03-31T02:55:10.235Z,5.03
2023-03-31T02:58:01.414Z,4.32
2023-03-31T03:00:52.921Z,3.70
2023-03-31T03:03:25.658Z,4.57
2023-03-31T03:06:13.907Z,4.22
2023-03-31T03:09:18.583Z,4.68
2023-03-31T03:11:51.654Z,3.97
2023-03-31T03:14:36.082Z,3.95
2023-03-31T03:17:26.000Z,3.55
2023-03-31T03:20:00.417Z,3.90
2023-03-31T03:22:27.317Z,3.70
2023-03-31T03:24:54.282Z,4.22
2023-03-31T03:27:22.974Z,4.63
2023-03-31T03:29:49.647Z,5.00
2023-03-31T03:32:16.383Z,3.88
2023-03-31T03:34:43.308Z,4.20
2023-03-31T03:37:09.950Z,4.47
2023-03-31T03:39:36.577Z,4.40
2023-03-31T03:42:04.079Z,4.70
2023-03-31T03:44:31.108Z,4.13
2023-03-31T03:46:57.802Z,4.57
2023-03-31T03:49:24.621Z,4.35
2023-03-31T03:51:51.680Z,4.28
2023-03-31T03:54:18.525Z,4.32
2023-03-31T03:56:45.240Z,4.60
2023-03-31T03:59:12.244Z,4.70
2023-03-31T04:01:38.826Z,4.15
2023-03-31T04:04:06.028Z,4.32
2023-03-31T04:06:32.707Z,4.47
2023-03-31T04:08:59.319Z,5.10
2023-03-31T04:11:26.227Z,4.70
2023-03-31T04:13:52.923Z,4.50
2023-03-31T04:16:19.821Z,4.93
2023-03-31T04:18:46.612Z,5.10
2023-03-31T04:21:15.517Z,5.00
2023-03-31T04:23:46.885Z,5.65
2023-03-31T04:26:18.588Z,5.18
2023-03-31T04:28:50.807Z,5.45
2023-03-31T04:31:27.025Z,5.47
2023-03-31T04:33:54.396Z,5.00
2023-03-31T04:36:21.996Z,5.85
2023-03-31T04:38:56.386Z,6.18
2023-03-31T04:41:24.592Z,6.25
2023-03-31T04:43:51.388Z,5.75
2023-03-31T04:46:18.273Z,6.18
2023-03-31T04:48:45.295Z,5.80
2023-03-31T04:51:15.328Z,5.20
2023-03-31T04:53:42.008Z,5.45
2023-03-31T04:56:08.999Z,6.18
2023-03-31T04:58:35.913Z,5.30
2023-03-31T05:01:02.577Z,5.28
2023-03-31T05:03:29.362Z,6.38
2023-03-31T05:05:56.088Z,5.55
2023-03-31T05:08:22.849Z,5.60
2023-03-31T05:10:49.758Z,5.55
2023-03-31T05:13:16.470Z,5.57
2023-03-31T05:15:45.227Z,5.63
2023-03-31T05:18:12.110Z,4.47
2023-03-31T05:20:39.161Z,5.30
2023-03-31T05:23:07.000Z,5.60
2023-03-31T05:25:33.937Z,4.68
2023-03-31T05:28:00.910Z,4.70
2023-03-31T05:30:28.899Z,4.70
2023-03-31T05:32:56.929Z,4.88
2023-03-31T05:35:23.696Z,4.93
2023-03-31T05:37:51.133Z,4.22
2023-03-31T05:40:17.920Z,4.05
2023-03-31T05:42:44.547Z,4.32
2023-03-31T05:45:12.549Z,4.15
2023-03-31T05:47:39.337Z,3.90
2023-03-31T05:50:09.127Z,4.88
2023-03-31T05:52:36.629Z,3.90
2023-03-31T05:55:04.496Z,4.00
2023-03-31T05:57:31.692Z,4.45
2023-03-31T05:59:58.621Z,4.10
2023-03-31T06:02:25.825Z,3.97
2023-03-31T06:04:52.594Z,4.03
2023-03-31T06:07:19.309Z,4.30
2023-03-31T06:09:46.694Z,4.75
2023-03-31T06:12:13.485Z,4.97
2023-03-31T06:14:40.283Z,4.63
2023-03-31T06:17:07.383Z,4.50
2023-03-31T06:19:34.414Z,4.78
2023-03-31T06:22:01.711Z,3.95
2023-03-31T06:24:28.539Z,4.18
2023-03-31T06:26:55.244Z,3.72
2023-03-31T06:29:22.090Z,3.70
2023-03-31T06:31:48.903Z,4.20
2023-03-31T06:34:15.633Z,3.80
2023-03-31T06:36:42.351Z,3.83
2023-03-31T06:39:09.100Z,3.63
2023-03-31T06:41:35.917Z,3.92
2023-03-31T06:44:02.530Z,3.90
2023-03-31T06:46:29.181Z,4.10
2023-03-31T06:48:56.289Z,4.20
2023-03-31T06:51:23.121Z,4.35
2023-03-31T06:53:49.812Z,3.70
2023-03-31T06:56:16.574Z,3.65
2023-03-31T06:58:43.358Z,4.43
2023-03-31T07:01:11.840Z,4.18
2023-03-31T07:03:38.761Z,3.50
2023-03-31T07:06:05.808Z,3.63
2023-03-31T07:08:32.727Z,3.50
2023-03-31T07:11:00.897Z,3.03
2023-03-31T07:13:28.998Z,3.53
2023-03-31T07:15:56.256Z,3.38
2023-03-31T07:18:26.212Z,3.40
2023-03-31T07:20:53.430Z,3.33
2023-03-31T07:23:20.842Z,3.40
2023-03-31T07:25:48.465Z,3.00
2023-03-31T07:28:16.245Z,3.60
2023-03-31T07:30:43.077Z,3.80
2023-03-31T07:33:09.891Z,3.75
2023-03-31T07:35:41.585Z,3.30
2023-03-31T07:38:12.697Z,4.00
2023-03-31T07:40:40.819Z,4.30
2023-03-31T07:43:07.914Z,3.88
2023-03-31T07:45:35.703Z,3.25
2023-03-31T07:48:02.519Z,3.05
2023-03-31T07:50:29.755Z,3.17
2023-03-31T07:52:56.477Z,2.70
2023-03-31T07:55:23.984Z,2.50
2023-03-31T07:57:51.461Z,2.33
2023-03-31T08:00:19.185Z,2.72
2023-03-31T08:02:45.907Z,2.53
2023-03-31T08:05:15.733Z,2.38
2023-03-31T08:07:45.335Z,2.88
2023-03-31T08:10:17.591Z,2.85
2023-03-31T08:12:44.571Z,3.35
2023-03-31T08:15:11.668Z,2.95
2023-03-31T08:17:38.671Z,2.78
2023-03-31T08:20:10.157Z,3.58
2023-03-31T08:22:37.954Z,2.88
2023-03-31T08:25:06.437Z,3.17
2023-03-31T08:27:37.411Z,3.00
2023-03-31T08:30:04.871Z,3.83
2023-03-31T08:32:33.023Z,3.42
2023-03-31T08:35:00.368Z,3.20
2023-03-31T08:37:28.446Z,3.65
2023-03-31T08:39:56.094Z,3.55
2023-03-31T08:42:43.698Z,4.38
2023-03-31T08:45:21.284Z,3.38
2023-03-31T08:47:53.601Z,3.40
2023-03-31T08:50:26.114Z,3.47
2023-03-31T08:53:16.721Z,3.80
2023-03-31T08:58:37.139Z,3.78
2023-03-31T09:01:19.914Z,3.80
2023-03-31T09:04:14.103Z,3.92
2023-03-31T09:07:03.712Z,3.70
2023-03-31T09:09:33.568Z,3.63
2023-03-31T09:12:08.106Z,3.40
2023-03-31T09:15:01.741Z,3.38
2023-03-31T09:17:37.547Z,3.08
2023-03-31T09:20:16.285Z,3.55
2023-03-31T09:22:51.012Z,3.42
2023-03-31T09:25:28.644Z,3.63
2023-03-31T09:27:58.422Z,3.38
2023-03-31T09:30:28.656Z,3.80
2023-03-31T09:33:02.924Z,3.38
2023-03-31T09:35:33.694Z,3.80
2023-03-31T09:38:00.652Z,3.65
2023-03-31T09:40:28.809Z,4.18
2023-03-31T09:43:01.884Z,3.50
2023-03-31T09:45:30.971Z,3.95
2023-03-31T09:48:01.248Z,3.03
2023-03-31T09:50:30.944Z,3.40
2023-03-31T09:53:00.881Z,3.40
2023-03-31T09:55:44.568Z,3.08
2023-03-31T09:58:16.778Z,3.42
2023-03-31T10:00:58.238Z,3.25
2023-03-31T10:03:25.541Z,3.03
2023-03-31T10:05:55.253Z,3.00
2023-03-31T10:08:28.040Z,3.00
2023-03-31T10:11:13.705Z,3.22
2023-03-31T10:13:48.640Z,3.08
2023-03-31T10:16:30.921Z,2.72
2023-03-31T10:19:35.074Z,2.80
2023-03-31T10:22:16.709Z,3.00
2023-03-31T10:24:45.765Z,2.58
2023-03-31T10:27:28.893Z,2.33
2023-03-31T10:30:01.659Z,2.35
2023-03-31T10:32:31.916Z,3.20
2023-03-31T10:35:08.161Z,2.85
2023-03-31T10:37:36.731Z,2.30
2023-03-31T10:40:14.689Z,2.42
2023-03-31T10:42:46.401Z,2.30
2023-03-31T10:45:56.629Z,2.72
2023-03-31T10:48:34.718Z,2.72
2023-03-31T10:51:12.808Z,2.40
2023-03-31T10:53:51.858Z,2.67
2023-03-31T10:56:24.600Z,2.75
2023-03-31T10:59:06.034Z,2.90
2023-03-31T11:01:52.089Z,2.63
2023-03-31T11:04:58.175Z,2.40
2023-03-31T11:07:52.822Z,2.60
2023-03-31T11:10:25.398Z,2.97
2023-03-31T11:13:04.735Z,2.97
2023-03-31T11:16:08.023Z,2.33
2023-03-31T11:18:46.988Z,2.35
2023-03-31T11:21:40.605Z,2.63
2023-03-31T11:24:16.374Z,2.50
2023-03-31T11:27:09.727Z,2.50
2023-03-31T11:29:42.205Z,2.20
2023-03-31T11:32:37.287Z,2.65
2023-03-31T11:35:19.218Z,2.78
2023-03-31T11:37:56.164Z,2.60
2023-03-31T11:40:35.129Z,3.42
2023-03-31T11:43:04.476Z,2.35
2023-03-31T11:45:39.926Z,2.92
2023-03-31T11:48:17.130Z,3.10
2023-03-31T11:50:47.327Z,2.20
2023-03-31T11:53:27.004Z,2.55
2023-03-31T11:55:55.929Z,2.58
2023-03-31T11:58:59.228Z,2.72
2023-03-31T12:01:44.092Z,2.38
2023-03-31T12:04:33.602Z,2.53
2023-03-31T12:07:16.290Z,2.80
2023-03-31T12:10:11.383Z,2.83
2023-03-31T12:13:02.564Z,2.35
2023-03-31T12:15:39.424Z,2.95
2023-03-31T12:18:25.751Z,2.60
2023-03-31T12:21:00.110Z,2.65
2023-03-31T12:23:31.060Z,2.95
2023-03-31T12:26:16.374Z,2.60
2023-03-31T12:28:46.090Z,2.60
2023-03-31T12:31:20.568Z,3.38
2023-03-31T12:33:58.799Z,2.90
2023-03-31T12:36:37.312Z,2.75
2023-03-31T12:39:22.336Z,3.78
2023-03-31T12:42:20.522Z,3.22
2023-03-31T12:45:00.136Z,2.92
2023-03-31T12:48:03.030Z,4.10
2023-03-31T12:51:02.741Z,3.17
2023-03-31T12:53:50.488Z,3.10
2023-03-31T12:56:17.304Z,3.20
2023-03-31T12:58:45.964Z,2.92
2023-03-31T13:01:14.785Z,3.38
2023-03-31T13:04:26.902Z,3.72
2023-03-31T13:06:56.213Z,3.85
2023-03-31T13:09:43.294Z,3.25
2023-03-31T13:12:16.234Z,3.33
2023-03-31T13:14:47.541Z,3.10
2023-03-31T13:17:27.790Z,3.08
2023-03-31T13:19:56.340Z,3.13
2023-03-31T13:22:35.552Z,3.30
2023-03-31T13:25:30.145Z,3.70
2023-03-31T13:27:58.970Z,3.47
2023-03-31T13:30:41.455Z,4.10
2023-03-31T13:33:12.042Z,3.25
2023-03-31T13:38:25.693Z,3.53
2023-03-31T13:41:03.425Z,3.22
2023-03-31T13:44:00.536Z,3.53
2023-03-31T13:46:48.548Z,3.25
2023-03-31T13:49:54.453Z,3.40
2023-03-31T13:53:02.543Z,2.58
2023-03-31T13:56:11.397Z,2.45
2023-03-31T13:58:59.710Z,3.58
2023-03-31T14:02:01.066Z,2.90
2023-03-31T14:04:57.088Z,2.53
2023-03-31T14:07:37.604Z,2.63
2023-03-31T14:10:04.666Z,2.38
2023-03-31T14:12:38.514Z,3.00
2023-03-31T14:15:07.075Z,3.30
2023-03-31T14:17:35.921Z,2.83
2023-03-31T14:20:08.473Z,3.30
2023-03-31T14:22:51.858Z,2.72
2023-03-31T14:25:46.388Z,2.38
2023-03-31T14:28:31.980Z,2.30
2023-03-31T14:31:13.620Z,2.47
2023-03-31T14:33:40.719Z,2.30
2023-03-31T14:36:26.231Z,2.42
2023-03-31T14:38:53.053Z,2.50
2023-03-31T14:41:29.872Z,2.42
2023-03-31T14:44:00.748Z,2.38
2023-03-31T14:46:32.031Z,2.10
2023-03-31T14:48:59.083Z,2.15
2023-03-31T14:51:29.758Z,1.92
2023-03-31T14:54:00.244Z,1.80
2023-03-31T14:56:36.292Z,1.80
2023-03-31T14:59:04.765Z,1.88
2023-03-31T15:01:35.823Z,2.42
2023-03-31T15:04:12.749Z,2.45
2023-03-31T15:06:42.343Z,2.30
2023-03-31T15:09:19.429Z,2.10
2023-03-31T15:11:48.058Z,1.77
2023-03-31T15:14:14.890Z,2.75
2023-03-31T15:16:45.389Z,1.92
2023-03-31T15:19:17.713Z,1.88
2023-03-31T15:21:45.500Z,1.70
2023-03-31T15:24:13.933Z,1.95
2023-03-31T15:26:48.666Z,2.08
2023-03-31T15:29:19.401Z,2.00
2023-03-31T15:31:46.840Z,2.08
2023-03-31T15:34:29.225Z,2.70
2023-03-31T15:36:57.356Z,2.35
2023-03-31T15:39:26.713Z,2.28
2023-03-31T15:41:54.515Z,2.22
2023-03-31T15:44:36.568Z,2.28
2023-03-31T15:47:29.362Z,2.42
2023-03-31T15:50:07.551Z,2.88
2023-03-31T15:52:39.886Z,2.70
2023-03-31T15:55:25.860Z,2.50
2023-03-31T15:57:54.408Z,2.25
2023-03-31T16:00:46.661Z,2.50
2023-03-31T16:03:17.649Z,2.78
2023-03-31T16:08:47.545Z,2.80
2023-03-31T16:11:22.574Z,2.92
2023-03-31T16:13:54.424Z,3.35
2023-03-31T16:16:23.932Z,6.95
2023-03-31T16:18:54.103Z,6.45
2023-03-31T16:21:28.224Z,3.10
2023-03-31T16:23:58.440Z,3.22
2023-03-31T16:26:27.949Z,3.95
2023-03-31T16:28:57.644Z,3.60
2023-03-31T16:31:29.458Z,3.53
2023-03-31T16:33:57.259Z,3.63
2023-03-31T16:36:24.036Z,3.05
2023-03-31T16:38:54.323Z,2.95
2023-03-31T16:41:23.273Z,2.95
2023-03-31T16:43:52.562Z,2.80
2023-03-31T16:46:19.524Z,2.90
2023-03-31T16:48:46.437Z,2.83
2023-03-31T16:51:13.659Z,2.47
2023-03-31T16:53:40.378Z,2.95
2023-03-31T16:56:08.313Z,2.92
2023-03-31T16:58:36.641Z,2.65
2023-03-31T17:01:04.645Z,2.83
2023-03-31T17:03:31.510Z,3.95
2023-03-31T17:05:59.425Z,3.17
2023-03-31T17:08:27.677Z,3.10
2023-03-31T17:10:59.808Z,3.63
2023-03-31T17:13:27.205Z,3.50
2023-03-31T17:16:01.338Z,3.35
2023-03-31T17:18:36.124Z,3.53
2023-03-31T17:21:05.639Z,3.85
2023-03-31T17:23:33.245Z,3.15
2023-03-31T17:26:00.034Z,3.08
2023-03-31T17:28:27.243Z,3.08
2023-03-31T17:30:54.051Z,2.55
2023-03-31T17:33:22.508Z,2.40
2023-03-31T17:35:49.445Z,2.60
2023-03-31T17:38:16.242Z,2.90
2023-03-31T17:40:43.477Z,3.10
2023-03-31T17:43:10.170Z,3.13
2023-03-31T17:45:36.892Z,2.80
2023-03-31T17:48:06.057Z,3.22
2023-03-31T17:50:33.086Z,2.90
2023-03-31T17:52:59.752Z,2.45
2023-03-31T17:55:27.278Z,2.90
2023-03-31T17:57:54.039Z,3.00
2023-03-31T18:00:20.780Z,3.20
2023-03-31T18:02:47.633Z,2.88
2023-03-31T18:05:17.011Z,3.03
2023-03-31T18:10:12.166Z,2.88
2023-03-31T18:12:38.813Z,3.70
2023-03-31T18:15:07.084Z,3.42
2023-03-31T18:17:34.264Z,3.47
2023-03-31T18:20:01.074Z,3.17
2023-03-31T18:22:28.484Z,3.28
2023-03-31T18:24:55.687Z,4.35
2023-03-31T18:27:24.605Z,4.60
2023-03-31T18:29:51.771Z,4.55
2023-03-31T18:32:18.597Z,3.10
2023-03-31T18:34:45.369Z,5.65
2023-03-31T18:37:12.598Z,8.13
2023-03-31T18:39:39.739Z,6.68
2023-03-31T18:42:06.601Z,9.10
2023-03-31T18:44:33.445Z,7.55
2023-03-31T18:47:00.669Z,4.40
2023-03-31T18:49:27.800Z,6.43
2023-03-31T18:51:54.417Z,8.80
2023-03-31T18:54:22.183Z,4.97
2023-03-31T18:56:48.962Z,5.55
2023-03-31T18:59:16.551Z,4.43
2023-03-31T19:01:43.353Z,3.83
2023-03-31T19:04:10.610Z,2.63
2023-03-31T19:06:37.438Z,2.55
2023-03-31T19:09:04.605Z,2.55
2023-03-31T19:11:31.183Z,4.35
2023-03-31T19:13:57.846Z,3.25
2023-03-31T19:16:26.883Z,3.35
2023-03-31T19:18:54.353Z,4.75
2023-03-31T19:21:22.089Z,3.13
2023-03-31T19:23:49.212Z,4.25
2023-03-31T19:26:18.235Z,4.00
2023-03-31T19:28:45.246Z,5.88
2023-03-31T19:31:12.414Z,3.72
2023-03-31T19:33:39.175Z,3.78
2023-03-31T19:36:06.695Z,3.33
2023-03-31T19:38:36.825Z,3.42
2023-03-31T19:41:07.431Z,3.67
2023-03-31T19:46:01.738Z,4.05
2023-03-31T19:48:31.373Z,3.70
2023-03-31T19:50:59.895Z,3.50
2023-03-31T19:53:27.294Z,2.75
2023-03-31T19:55:56.264Z,4.78
2023-03-31T19:58:23.275Z,5.28
2023-03-31T20:00:54.432Z,4.20
2023-03-31T20:03:22.464Z,4.63
2023-03-31T20:05:49.600Z,4.40
2023-03-31T20:08:16.499Z,3.95
2023-03-31T20:10:43.502Z,2.88
2023-03-31T20:13:10.521Z,2.40
2023-03-31T20:15:38.955Z,2.80
2023-03-31T20:18:07.219Z,2.30
2023-03-31T20:20:33.989Z,2.33
2023-03-31T20:23:01.184Z,2.53
2023-03-31T20:25:28.024Z,2.88
2023-03-31T20:27:54.831Z,2.60
2023-03-31T20:30:21.759Z,2.30
2023-03-31T20:32:48.506Z,2.35
2023-03-31T20:35:15.284Z,2.05
2023-03-31T20:37:42.084Z,2.30
2023-03-31T20:40:09.453Z,2.47
2023-03-31T20:42:36.389Z,2.42
2023-03-31T20:45:03.763Z,2.42
2023-03-31T20:47:30.498Z,2.40
2023-03-31T20:49:57.177Z,2.67
2023-03-31T20:52:24.298Z,2.10
2023-03-31T20:54:51.224Z,2.90
2023-03-31T20:57:17.896Z,2.40
2023-03-31T20:59:45.541Z,2.63
2023-03-31T21:02:13.114Z,2.70
2023-03-31T21:04:39.817Z,2.70
2023-03-31T21:07:06.800Z,2.50
2023-03-31T21:09:34.162Z,3.63
2023-03-31T21:12:01.464Z,2.92
2023-03-31T21:14:29.622Z,2.75
2023-03-31T21:16:56.498Z,2.97
2023-03-31T21:19:23.342Z,2.70
2023-03-31T21:21:50.061Z,3.20
2023-03-31T21:24:16.914Z,2.83
2023-03-31T21:26:43.639Z,3.20
2023-03-31T21:29:10.858Z,3.33
2023-03-31T21:31:37.729Z,3.25
2023-03-31T21:34:05.307Z,3.13
2023-03-31T21:36:32.147Z,2.90
2023-03-31T21:38:58.886Z,3.20
2023-03-31T21:41:30.108Z,3.10
2023-03-31T21:44:00.514Z,3.67
2023-03-31T21:46:31.209Z,3.40
2023-03-31T21:48:58.044Z,3.63
2023-03-31T21:51:25.190Z,3.30
2023-03-31T21:53:56.076Z,3.83
2023-03-31T21:56:24.732Z,3.67
2023-03-31T21:58:51.906Z,3.60
2023-03-31T22:01:18.987Z,3.83
2023-03-31T22:03:46.340Z,3.40
2023-03-31T22:06:13.312Z,3.63
2023-03-31T22:08:40.755Z,3.92
2023-03-31T22:11:09.286Z,3.47
2023-03-31T22:13:36.665Z,3.70
2023-03-31T22:16:05.020Z,4.22
2023-03-31T22:18:31.971Z,3.78
2023-03-31T22:20:58.895Z,3.70
2023-03-31T22:23:26.089Z,4.05
2023-03-31T22:25:52.685Z,4.50
2023-03-31T22:28:19.498Z,4.25
2023-03-31T22:30:46.377Z,4.03
2023-03-31T22:33:13.249Z,4.60
2023-03-31T22:35:40.079Z,4.05
2023-03-31T22:38:08.523Z,4.40
2023-03-31T22:40:36.288Z,4.15
2023-03-31T22:43:03.168Z,4.20
2023-03-31T22:45:29.946Z,4.45
2023-03-31T22:47:57.035Z,4.38
2023-03-31T22:50:24.274Z,4.60
2023-03-31T22:52:50.948Z,4.13
2023-03-31T22:55:17.730Z,4.20
2023-03-31T22:57:44.680Z,4.07
2023-03-31T23:00:12.760Z,4.13
2023-03-31T23:02:40.090Z,4.10
2023-03-31T23:05:07.173Z,4.00
2023-03-31T23:07:33.909Z,4.03
2023-03-31T23:10:00.649Z,4.40
2023-03-31T23:12:28.260Z,4.05
2023-03-31T23:14:54.855Z,4.30
2023-03-31T23:17:21.531Z,5.35
2023-03-31T23:19:48.602Z,4.22
2023-03-31T23:22:15.348Z,4.15
2023-03-31T23:24:41.956Z,4.40
2023-03-31T23:27:08.753Z,4.53
2023-03-31T23:29:35.689Z,4.40
2023-03-31T23:32:03.506Z,4.53
2023-03-31T23:34:30.533Z,4.15
2023-03-31T23:36:57.282Z,7.93
2023-03-31T23:39:24.009Z,7.22
2023-03-31T23:41:51.177Z,5.07
2023-03-31T23:44:17.992Z,4.70
2023-03-31T23:46:44.732Z,4.50
2023-03-31T23:49:11.755Z,5.45
2023-03-31T23:51:38.363Z,4.95
2023-03-31T23:54:05.118Z,5.18
2023-03-31T23:56:31.773Z,5.32
2023-03-31T23:58:58.595Z,4.82
